sensor_id;sensor_type;location;lat;lon;timestamp;P1;durP1;ratioP1;P2;durP2;ratioP2
22705;SDS011;11520;51.198;4.468;2023-07-16T00:00:27;5.07;;;1.67;;
22705;SDS011;11520;51.198;4.468;2023-07-16T00:02:53;4.22;;;1.85;;
22705;SDS011;11520;51.198;4.468;2023-07-16T00:05:18;6.93;;;1.95;;
22705;SDS011;11520;51.198;4.468;2023-07-16T00:07:44;11.45;;;2.30;;
22705;SDS011;11520;51.198;4.468;2023-07-16T00:10:10;6.00;;;2.10;;
22705;SDS011;11520;51.198;4.468;2023-07-16T00:12:35;6.38;;;1.60;;
22705;SDS011;11520;51.198;4.468;2023-07-16T00:15:01;7.50;;;1.80;;
22705;SDS011;11520;51.198;4.468;2023-07-16T00:17:26;7.90;;;2.35;;
22705;SDS011;11520;51.198;4.468;2023-07-16T00:19:52;6.40;;;2.10;;
22705;SDS011;11520;51.198;4.468;2023-07-16T00:22:19;5.85;;;2.42;;
22705;SDS011;11520;51.198;4.468;2023-07-16T00:24:44;7.57;;;1.90;;
22705;SDS011;11520;51.198;4.468;2023-07-16T00:27:10;8.57;;;2.42;;
22705;SDS011;11520;51.198;4.468;2023-07-16T00:29:35;8.88;;;1.98;;
22705;SDS011;11520;51.198;4.468;2023-07-16T00:32:01;7.60;;;2.03;;
22705;SDS011;11520;51.198;4.468;2023-07-16T00:34:26;9.18;;;2.00;;
22705;SDS011;11520;51.198;4.468;2023-07-16T00:36:52;6.72;;;2.20;;
22705;SDS011;11520;51.198;4.468;2023-07-16T00:39:17;7.60;;;2.13;;
22705;SDS011;11520;51.198;4.468;2023-07-16T00:41:43;7.00;;;2.03;;
22705;SDS011;11520;51.198;4.468;2023-07-16T00:44:08;4.47;;;1.75;;
22705;SDS011;11520;51.198;4.468;2023-07-16T00:46:34;6.15;;;1.60;;
22705;SDS011;11520;51.198;4.468;2023-07-16T00:49:00;9.45;;;2.30;;
22705;SDS011;11520;51.198;4.468;2023-07-16T00:51:26;9.55;;;2.50;;
22705;SDS011;11520;51.198;4.468;2023-07-16T00:53:53;7.18;;;2.05;;
22705;SDS011;11520;51.198;4.468;2023-07-16T00:56:19;7.57;;;1.92;;
22705;SDS011;11520;51.198;4.468;2023-07-16T00:58:46;8.82;;;2.22;;
22705;SDS011;11520;51.198;4.468;2023-07-16T01:01:11;10.38;;;2.97;;
22705;SDS011;11520;51.198;4.468;2023-07-16T01:03:37;8.68;;;2.25;;
22705;SDS011;11520;51.198;4.468;2023-07-16T01:08:57;10.52;;;2.15;;
22705;SDS011;11520;51.198;4.468;2023-07-16T01:11:23;7.15;;;1.85;;
22705;SDS011;11520;51.198;4.468;2023-07-16T01:13:49;5.40;;;1.60;;
22705;SDS011;11520;51.198;4.468;2023-07-16T01:16:20;6.88;;;2.30;;
22705;SDS011;11520;51.198;4.468;2023-07-16T01:18:47;6.80;;;1.73;;
22705;SDS011;11520;51.198;4.468;2023-07-16T01:21:14;8.13;;;1.88;;
22705;SDS011;11520;51.198;4.468;2023-07-16T01:23:56;12.63;;;2.22;;
22705;SDS011;11520;51.198;4.468;2023-07-16T01:26:57;8.30;;;2.30;;
22705;SDS011;11520;51.198;4.468;2023-07-16T01:29:36;6.13;;;2.15;;
22705;SDS011;11520;51.198;4.468;2023-07-16T01:32:03;12.80;;;2.15;;
22705;SDS011;11520;51.198;4.468;2023-07-16T01:34:32;4.90;;;1.63;;
22705;SDS011;11520;51.198;4.468;2023-07-16T01:37:00;9.63;;;2.42;;
22705;SDS011;11520;51.198;4.468;2023-07-16T01:39:27;8.82;;;2.28;;
22705;SDS011;11520;51.198;4.468;2023-07-16T01:41:53;7.25;;;1.77;;
22705;SDS011;11520;51.198;4.468;2023-07-16T01:44:18;6.53;;;2.42;;
22705;SDS011;11520;51.198;4.468;2023-07-16T01:46:44;6.45;;;2.28;;
22705;SDS011;11520;51.198;4.468;2023-07-16T01:49:27;5.47;;;2.23;;
22705;SDS011;11520;51.198;4.468;2023-07-16T01:51:52;4.57;;;2.10;;
22705;SDS011;11520;51.198;4.468;2023-07-16T01:54:19;4.82;;;1.98;;
22705;SDS011;11520;51.198;4.468;2023-07-16T01:56:45;7.50;;;2.40;;
22705;SDS011;11520;51.198;4.468;2023-07-16T01:59:11;7.93;;;2.45;;
22705;SDS011;11520;51.198;4.468;2023-07-16T02:01:36;8.93;;;2.45;;
22705;SDS011;11520;51.198;4.468;2023-07-16T02:04:02;9.23;;;2.75;;
22705;SDS011;11520;51.198;4.468;2023-07-16T02:06:28;7.18;;;2.38;;
22705;SDS011;11520;51.198;4.468;2023-07-16T02:08:53;9.13;;;2.45;;
22705;SDS011;11520;51.198;4.468;2023-07-16T02:11:19;5.45;;;2.10;;
22705;SDS011;11520;51.198;4.468;2023-07-16T02:13:44;9.77;;;2.20;;
22705;SDS011;11520;51.198;4.468;2023-07-16T02:16:10;13.00;;;2.17;;
22705;SDS011;11520;51.198;4.468;2023-07-16T02:18:35;6.40;;;2.05;;
22705;SDS011;11520;51.198;4.468;2023-07-16T02:21:01;8.05;;;2.13;;
22705;SDS011;11520;51.198;4.468;2023-07-16T02:23:27;10.30;;;2.03;;
22705;SDS011;11520;51.198;4.468;2023-07-16T02:25:52;6.63;;;2.22;;
22705;SDS011;11520;51.198;4.468;2023-07-16T02:28:18;7.25;;;2.88;;
22705;SDS011;11520;51.198;4.468;2023-07-16T02:30:43;4.30;;;2.05;;
22705;SDS011;11520;51.198;4.468;2023-07-16T02:33:09;7.20;;;2.63;;
22705;SDS011;11520;51.198;4.468;2023-07-16T02:35:36;7.22;;;2.63;;
22705;SDS011;11520;51.198;4.468;2023-07-16T02:38:01;9.23;;;3.00;;
22705;SDS011;11520;51.198;4.468;2023-07-16T02:40:27;7.38;;;3.00;;
22705;SDS011;11520;51.198;4.468;2023-07-16T02:42:52;5.50;;;2.55;;
22705;SDS011;11520;51.198;4.468;2023-07-16T02:45:18;8.60;;;3.42;;
22705;SDS011;11520;51.198;4.468;2023-07-16T02:47:44;5.72;;;2.58;;
22705;SDS011;11520;51.198;4.468;2023-07-16T02:50:09;8.25;;;3.15;;
22705;SDS011;11520;51.198;4.468;2023-07-16T02:52:35;6.40;;;3.20;;
22705;SDS011;11520;51.198;4.468;2023-07-16T02:55:01;7.55;;;3.15;;
22705;SDS011;11520;51.198;4.468;2023-07-16T02:57:27;7.97;;;3.20;;
22705;SDS011;11520;51.198;4.468;2023-07-16T02:59:53;6.10;;;3.17;;
22705;SDS011;11520;51.198;4.468;2023-07-16T03:02:19;9.95;;;3.53;;
22705;SDS011;11520;51.198;4.468;2023-07-16T03:04:44;6.05;;;3.00;;
22705;SDS011;11520;51.198;4.468;2023-07-16T03:07:10;7.78;;;3.28;;
22705;SDS011;11520;51.198;4.468;2023-07-16T03:09:35;9.70;;;3.30;;
22705;SDS011;11520;51.198;4.468;2023-07-16T03:12:01;8.35;;;3.30;;
22705;SDS011;11520;51.198;4.468;2023-07-16T03:14:26;6.50;;;3.17;;
22705;SDS011;11520;51.198;4.468;2023-07-16T03:16:52;8.05;;;3.25;;
22705;SDS011;11520;51.198;4.468;2023-07-16T03:19:17;12.38;;;3.85;;
22705;SDS011;11520;51.198;4.468;2023-07-16T03:21:43;8.60;;;3.50;;
22705;SDS011;11520;51.198;4.468;2023-07-16T03:24:10;7.30;;;3.28;;
22705;SDS011;11520;51.198;4.468;2023-07-16T03:26:37;7.93;;;3.78;;
22705;SDS011;11520;51.198;4.468;2023-07-16T03:29:02;6.93;;;3.25;;
22705;SDS011;11520;51.198;4.468;2023-07-16T03:31:28;9.95;;;3.78;;
22705;SDS011;11520;51.198;4.468;2023-07-16T03:33:53;6.07;;;3.00;;
22705;SDS011;11520;51.198;4.468;2023-07-16T03:36:19;10.60;;;3.50;;
22705;SDS011;11520;51.198;4.468;2023-07-16T03:38:45;8.38;;;4.07;;
22705;SDS011;11520;51.198;4.468;2023-07-16T03:41:10;9.73;;;3.67;;
22705;SDS011;11520;51.198;4.468;2023-07-16T03:43:36;10.20;;;3.97;;
22705;SDS011;11520;51.198;4.468;2023-07-16T03:46:01;10.27;;;3.80;;
22705;SDS011;11520;51.198;4.468;2023-07-16T03:48:27;8.18;;;4.00;;
22705;SDS011;11520;51.198;4.468;2023-07-16T03:50:52;8.32;;;3.95;;
22705;SDS011;11520;51.198;4.468;2023-07-16T03:53:18;11.52;;;4.05;;
22705;SDS011;11520;51.198;4.468;2023-07-16T03:55:44;10.77;;;4.72;;
22705;SDS011;11520;51.198;4.468;2023-07-16T03:58:09;13.68;;;4.97;;
22705;SDS011;11520;51.198;4.468;2023-07-16T04:00:35;8.90;;;4.32;;
22705;SDS011;11520;51.198;4.468;2023-07-16T04:03:00;9.95;;;4.47;;
22705;SDS011;11520;51.198;4.468;2023-07-16T04:05:26;8.70;;;4.25;;
22705;SDS011;11520;51.198;4.468;2023-07-16T04:07:51;8.80;;;4.88;;
22705;SDS011;11520;51.198;4.468;2023-07-16T04:10:17;9.02;;;4.28;;
22705;SDS011;11520;51.198;4.468;2023-07-16T04:12:43;7.03;;;3.65;;
22705;SDS011;11520;51.198;4.468;2023-07-16T04:15:08;10.55;;;5.00;;
22705;SDS011;11520;51.198;4.468;2023-07-16T04:17:35;10.57;;;4.82;;
22705;SDS011;11520;51.198;4.468;2023-07-16T04:20:01;9.00;;;4.50;;
22705;SDS011;11520;51.198;4.468;2023-07-16T04:22:26;9.65;;;4.28;;
22705;SDS011;11520;51.198;4.468;2023-07-16T04:24:52;9.10;;;4.03;;
22705;SDS011;11520;51.198;4.468;2023-07-16T04:27:17;9.60;;;4.38;;
22705;SDS011;11520;51.198;4.468;2023-07-16T04:29:43;11.27;;;4.63;;
22705;SDS011;11520;51.198;4.468;2023-07-16T04:32:09;9.35;;;4.25;;
22705;SDS011;11520;51.198;4.468;2023-07-16T04:34:34;9.57;;;4.82;;
22705;SDS011;11520;51.198;4.468;2023-07-16T04:37:01;11.07;;;4.80;;
22705;SDS011;11520;51.198;4.468;2023-07-16T04:39:27;8.73;;;4.82;;
22705;SDS011;11520;51.198;4.468;2023-07-16T04:41:52;12.65;;;4.68;;
22705;SDS011;11520;51.198;4.468;2023-07-16T04:44:18;13.00;;;5.10;;
22705;SDS011;11520;51.198;4.468;2023-07-16T04:46:43;12.95;;;4.22;;
22705;SDS011;11520;51.198;4.468;2023-07-16T04:49:09;9.23;;;5.00;;
22705;SDS011;11520;51.198;4.468;2023-07-16T04:51:36;11.10;;;5.18;;
22705;SDS011;11520;51.198;4.468;2023-07-16T04:54:01;15.02;;;4.97;;
22705;SDS011;11520;51.198;4.468;2023-07-16T04:56:27;10.90;;;5.10;;
22705;SDS011;11520;51.198;4.468;2023-07-16T04:58:52;10.15;;;5.22;;
22705;SDS011;11520;51.198;4.468;2023-07-16T05:01:18;11.95;;;4.88;;
22705;SDS011;11520;51.198;4.468;2023-07-16T05:03:45;9.68;;;4.72;;
22705;SDS011;11520;51.198;4.468;2023-07-16T05:06:11;9.23;;;4.63;;
22705;SDS011;11520;51.198;4.468;2023-07-16T05:08:36;10.02;;;4.55;;
22705;SDS011;11520;51.198;4.468;2023-07-16T05:11:02;10.25;;;4.65;;
22705;SDS011;11520;51.198;4.468;2023-07-16T05:13:27;7.00;;;4.03;;
22705;SDS011;11520;51.198;4.468;2023-07-16T05:15:53;7.15;;;4.25;;
22705;SDS011;11520;51.198;4.468;2023-07-16T05:18:19;9.75;;;4.22;;
22705;SDS011;11520;51.198;4.468;2023-07-16T05:20:48;7.28;;;4.03;;
22705;SDS011;11520;51.198;4.468;2023-07-16T05:23:14;10.55;;;4.38;;
22705;SDS011;11520;51.198;4.468;2023-07-16T05:25:46;8.90;;;4.30;;
22705;SDS011;11520;51.198;4.468;2023-07-16T05:28:15;10.23;;;4.43;;
22705;SDS011;11520;51.198;4.468;2023-07-16T05:33:13;10.05;;;4.32;;
22705;SDS011;11520;51.198;4.468;2023-07-16T05:35:39;9.98;;;4.60;;
22705;SDS011;11520;51.198;4.468;2023-07-16T05:38:05;8.85;;;4.60;;
22705;SDS011;11520;51.198;4.468;2023-07-16T05:40:32;7.60;;;4.57;;
22705;SDS011;11520;51.198;4.468;2023-07-16T05:42:57;10.15;;;4.88;;
22705;SDS011;11520;51.198;4.468;2023-07-16T05:45:23;9.35;;;4.93;;
22705;SDS011;11520;51.198;4.468;2023-07-16T05:47:49;9.32;;;4.60;;
22705;SDS011;11520;51.198;4.468;2023-07-16T05:50:15;10.57;;;4.88;;
22705;SDS011;11520;51.198;4.468;2023-07-16T05:52:40;9.65;;;4.70;;
22705;SDS011;11520;51.198;4.468;2023-07-16T05:55:06;11.32;;;4.75;;
22705;SDS011;11520;51.198;4.468;2023-07-16T05:57:32;9.48;;;4.32;;
22705;SDS011;11520;51.198;4.468;2023-07-16T05:59:57;6.88;;;4.18;;
22705;SDS011;11520;51.198;4.468;2023-07-16T06:02:23;11.18;;;4.80;;
22705;SDS011;11520;51.198;4.468;2023-07-16T06:04:50;7.07;;;3.95;;
22705;SDS011;11520;51.198;4.468;2023-07-16T06:07:16;9.27;;;4.63;;
22705;SDS011;11520;51.198;4.468;2023-07-16T06:09:42;8.50;;;4.07;;
22705;SDS011;11520;51.198;4.468;2023-07-16T06:12:08;6.78;;;4.03;;
22705;SDS011;11520;51.198;4.468;2023-07-16T06:14:34;5.30;;;3.75;;
22705;SDS011;11520;51.198;4.468;2023-07-16T06:16:59;7.22;;;4.50;;
22705;SDS011;11520;51.198;4.468;2023-07-16T06:19:25;9.43;;;4.20;;
22705;SDS011;11520;51.198;4.468;2023-07-16T06:21:51;6.60;;;4.05;;
22705;SDS011;11520;51.198;4.468;2023-07-16T06:24:17;8.20;;;4.15;;
22705;SDS011;11520;51.198;4.468;2023-07-16T06:26:43;10.18;;;4.15;;
22705;SDS011;11520;51.198;4.468;2023-07-16T06:29:08;9.73;;;4.25;;
22705;SDS011;11520;51.198;4.468;2023-07-16T06:31:34;7.45;;;4.07;;
22705;SDS011;11520;51.198;4.468;2023-07-16T06:34:00;8.35;;;4.20;;
22705;SDS011;11520;51.198;4.468;2023-07-16T06:36:25;8.75;;;4.18;;
22705;SDS011;11520;51.198;4.468;2023-07-16T06:38:52;9.05;;;3.97;;
22705;SDS011;11520;51.198;4.468;2023-07-16T06:41:18;11.60;;;4.43;;
22705;SDS011;11520;51.198;4.468;2023-07-16T06:43:44;11.00;;;4.60;;
22705;SDS011;11520;51.198;4.468;2023-07-16T06:46:09;9.23;;;4.15;;
22705;SDS011;11520;51.198;4.468;2023-07-16T06:48:35;10.90;;;4.03;;
22705;SDS011;11520;51.198;4.468;2023-07-16T06:51:01;8.73;;;4.05;;
22705;SDS011;11520;51.198;4.468;2023-07-16T06:53:26;7.97;;;4.47;;
22705;SDS011;11520;51.198;4.468;2023-07-16T06:55:52;11.15;;;3.97;;
22705;SDS011;11520;51.198;4.468;2023-07-16T06:58:18;8.63;;;4.50;;
22705;SDS011;11520;51.198;4.468;2023-07-16T07:00:43;8.02;;;3.90;;
22705;SDS011;11520;51.198;4.468;2023-07-16T07:03:09;9.57;;;4.45;;
22705;SDS011;11520;51.198;4.468;2023-07-16T07:05:35;8.98;;;4.32;;
22705;SDS011;11520;51.198;4.468;2023-07-16T07:08:02;7.20;;;3.90;;
22705;SDS011;11520;51.198;4.468;2023-07-16T07:10:28;10.40;;;3.97;;
22705;SDS011;11520;51.198;4.468;2023-07-16T07:12:53;8.05;;;3.95;;
22705;SDS011;11520;51.198;4.468;2023-07-16T07:15:19;8.57;;;4.13;;
22705;SDS011;11520;51.198;4.468;2023-07-16T07:17:44;9.05;;;3.72;;
22705;SDS011;11520;51.198;4.468;2023-07-16T07:20:11;7.18;;;3.55;;
22705;SDS011;11520;51.198;4.468;2023-07-16T07:22:38;8.50;;;4.55;;
22705;SDS011;11520;51.198;4.468;2023-07-16T07:25:04;8.27;;;3.47;;
22705;SDS011;11520;51.198;4.468;2023-07-16T07:27:30;13.15;;;4.38;;
22705;SDS011;11520;51.198;4.468;2023-07-16T07:29:56;8.57;;;3.97;;
22705;SDS011;11520;51.198;4.468;2023-07-16T07:32:24;8.65;;;3.90;;
22705;SDS011;11520;51.198;4.468;2023-07-16T07:34:50;8.80;;;3.95;;
22705;SDS011;11520;51.198;4.468;2023-07-16T07:37:15;10.20;;;4.22;;
22705;SDS011;11520;51.198;4.468;2023-07-16T07:39:41;10.57;;;4.32;;
22705;SDS011;11520;51.198;4.468;2023-07-16T07:42:07;10.63;;;4.20;;
22705;SDS011;11520;51.198;4.468;2023-07-16T07:44:34;9.70;;;4.28;;
22705;SDS011;11520;51.198;4.468;2023-07-16T07:46:59;10.88;;;4.20;;
22705;SDS011;11520;51.198;4.468;2023-07-16T07:49:25;9.95;;;4.15;;
22705;SDS011;11520;51.198;4.468;2023-07-16T07:51:50;7.45;;;3.92;;
22705;SDS011;11520;51.198;4.468;2023-07-16T07:54:16;6.90;;;3.60;;
22705;SDS011;11520;51.198;4.468;2023-07-16T07:56:42;9.50;;;4.32;;
22705;SDS011;11520;51.198;4.468;2023-07-16T07:59:10;7.07;;;3.72;;
22705;SDS011;11520;51.198;4.468;2023-07-16T08:01:35;8.48;;;3.95;;
22705;SDS011;11520;51.198;4.468;2023-07-16T08:04:01;5.43;;;3.42;;
22705;SDS011;11520;51.198;4.468;2023-07-16T08:06:26;8.07;;;4.03;;
22705;SDS011;11520;51.198;4.468;2023-07-16T08:08:52;8.23;;;4.10;;
22705;SDS011;11520;51.198;4.468;2023-07-16T08:11:19;11.70;;;4.22;;
22705;SDS011;11520;51.198;4.468;2023-07-16T08:13:46;7.65;;;4.30;;
22705;SDS011;11520;51.198;4.468;2023-07-16T08:16:11;14.27;;;4.10;;
22705;SDS011;11520;51.198;4.468;2023-07-16T08:18:37;7.05;;;4.10;;
22705;SDS011;11520;51.198;4.468;2023-07-16T08:21:05;9.10;;;4.15;;
22705;SDS011;11520;51.198;4.468;2023-07-16T08:23:31;7.47;;;3.63;;
22705;SDS011;11520;51.198;4.468;2023-07-16T08:25:57;6.45;;;3.40;;
22705;SDS011;11520;51.198;4.468;2023-07-16T08:28:23;8.30;;;3.80;;
22705;SDS011;11520;51.198;4.468;2023-07-16T08:30:48;8.52;;;4.25;;
22705;SDS011;11520;51.198;4.468;2023-07-16T08:33:16;7.28;;;4.32;;
22705;SDS011;11520;51.198;4.468;2023-07-16T08:35:41;9.73;;;4.28;;
22705;SDS011;11520;51.198;4.468;2023-07-16T08:38:08;10.38;;;4.43;;
22705;SDS011;11520;51.198;4.468;2023-07-16T08:40:37;8.60;;;4.85;;
22705;SDS011;11520;51.198;4.468;2023-07-16T08:43:03;9.13;;;4.55;;
22705;SDS011;11520;51.198;4.468;2023-07-16T08:45:32;7.82;;;4.15;;
22705;SDS011;11520;51.198;4.468;2023-07-16T08:48:04;7.50;;;4.45;;
22705;SDS011;11520;51.198;4.468;2023-07-16T08:50:32;6.72;;;3.90;;
22705;SDS011;11520;51.198;4.468;2023-07-16T08:53:01;7.63;;;4.38;;
22705;SDS011;11520;51.198;4.468;2023-07-16T08:55:28;9.68;;;4.28;;
22705;SDS011;11520;51.198;4.468;2023-07-16T08:57:54;8.82;;;4.00;;
22705;SDS011;11520;51.198;4.468;2023-07-16T09:00:20;10.00;;;4.28;;
22705;SDS011;11520;51.198;4.468;2023-07-16T09:02:47;7.00;;;3.95;;
22705;SDS011;11520;51.198;4.468;2023-07-16T09:05:13;7.70;;;4.35;;
22705;SDS011;11520;51.198;4.468;2023-07-16T09:07:40;9.07;;;4.93;;
22705;SDS011;11520;51.198;4.468;2023-07-16T09:10:06;8.48;;;4.15;;
22705;SDS011;11520;51.198;4.468;2023-07-16T09:12:32;6.60;;;4.10;;
22705;SDS011;11520;51.198;4.468;2023-07-16T09:14:57;8.88;;;3.92;;
22705;SDS011;11520;51.198;4.468;2023-07-16T09:17:24;8.48;;;3.70;;
22705;SDS011;11520;51.198;4.468;2023-07-16T09:19:50;7.20;;;4.22;;
22705;SDS011;11520;51.198;4.468;2023-07-16T09:22:17;8.25;;;4.55;;
22705;SDS011;11520;51.198;4.468;2023-07-16T09:24:44;8.07;;;4.47;;
22705;SDS011;11520;51.198;4.468;2023-07-16T09:27:11;7.63;;;4.18;;
22705;SDS011;11520;51.198;4.468;2023-07-16T09:29:37;8.77;;;3.83;;
22705;SDS011;11520;51.198;4.468;2023-07-16T09:32:03;8.55;;;3.67;;
22705;SDS011;11520;51.198;4.468;2023-07-16T09:34:32;6.53;;;3.55;;
22705;SDS011;11520;51.198;4.468;2023-07-16T09:36:58;7.97;;;4.32;;
22705;SDS011;11520;51.198;4.468;2023-07-16T09:39:27;5.82;;;3.50;;
22705;SDS011;11520;51.198;4.468;2023-07-16T09:41:53;9.77;;;3.83;;
22705;SDS011;11520;51.198;4.468;2023-07-16T09:44:21;8.32;;;3.72;;
22705;SDS011;11520;51.198;4.468;2023-07-16T09:46:47;7.65;;;3.75;;
22705;SDS011;11520;51.198;4.468;2023-07-16T09:49:14;8.80;;;4.20;;
22705;SDS011;11520;51.198;4.468;2023-07-16T09:51:40;11.02;;;4.30;;
22705;SDS011;11520;51.198;4.468;2023-07-16T09:54:08;9.38;;;3.50;;
22705;SDS011;11520;51.198;4.468;2023-07-16T09:56:36;6.95;;;3.85;;
22705;SDS011;11520;51.198;4.468;2023-07-16T09:59:06;11.85;;;4.60;;
22705;SDS011;11520;51.198;4.468;2023-07-16T10:01:35;10.50;;;4.35;;
22705;SDS011;11520;51.198;4.468;2023-07-16T10:04:17;8.77;;;4.35;;
22705;SDS011;11520;51.198;4.468;2023-07-16T10:06:54;8.10;;;4.18;;
22705;SDS011;11520;51.198;4.468;2023-07-16T10:09:34;12.00;;;4.80;;
22705;SDS011;11520;51.198;4.468;2023-07-16T10:12:16;9.52;;;4.25;;
22705;SDS011;11520;51.198;4.468;2023-07-16T10:14:50;9.88;;;3.95;;
22705;SDS011;11520;51.198;4.468;2023-07-16T10:17:24;6.10;;;4.20;;
22705;SDS011;11520;51.198;4.468;2023-07-16T10:19:58;7.55;;;4.28;;
22705;SDS011;11520;51.198;4.468;2023-07-16T10:22:42;8.55;;;4.10;;
22705;SDS011;11520;51.198;4.468;2023-07-16T10:25:21;10.35;;;4.20;;
22705;SDS011;11520;51.198;4.468;2023-07-16T10:27:50;11.82;;;4.70;;
22705;SDS011;11520;51.198;4.468;2023-07-16T10:30:17;7.45;;;4.50;;
22705;SDS011;11520;51.198;4.468;2023-07-16T10:32:43;9.30;;;3.95;;
22705;SDS011;11520;51.198;4.468;2023-07-16T10:35:09;8.30;;;4.35;;
22705;SDS011;11520;51.198;4.468;2023-07-16T10:37:38;11.20;;;4.63;;
22705;SDS011;11520;51.198;4.468;2023-07-16T10:40:05;7.18;;;4.43;;
22705;SDS011;11520;51.198;4.468;2023-07-16T10:42:35;10.20;;;4.88;;
22705;SDS011;11520;51.198;4.468;2023-07-16T10:45:07;7.13;;;3.97;;
22705;SDS011;11520;51.198;4.468;2023-07-16T10:47:34;10.77;;;4.15;;
22705;SDS011;11520;51.198;4.468;2023-07-16T10:50:05;10.02;;;5.35;;
22705;SDS011;11520;51.198;4.468;2023-07-16T10:52:35;10.40;;;5.07;;
22705;SDS011;11520;51.198;4.468;2023-07-16T10:55:03;9.65;;;4.28;;
22705;SDS011;11520;51.198;4.468;2023-07-16T10:57:29;10.88;;;4.10;;
22705;SDS011;11520;51.198;4.468;2023-07-16T10:59:55;8.55;;;4.05;;
22705;SDS011;11520;51.198;4.468;2023-07-16T11:02:23;10.10;;;4.53;;
22705;SDS011;11520;51.198;4.468;2023-07-16T11:04:50;13.90;;;5.88;;
22705;SDS011;11520;51.198;4.468;2023-07-16T11:07:20;7.72;;;4.05;;
22705;SDS011;11520;51.198;4.468;2023-07-16T11:09:48;9.63;;;3.95;;
22705;SDS011;11520;51.198;4.468;2023-07-16T11:12:16;8.27;;;3.92;;
22705;SDS011;11520;51.198;4.468;2023-07-16T11:14:46;6.88;;;3.30;;
22705;SDS011;11520;51.198;4.468;2023-07-16T11:17:13;7.78;;;4.10;;
22705;SDS011;11520;51.198;4.468;2023-07-16T11:19:39;6.65;;;3.60;;
22705;SDS011;11520;51.198;4.468;2023-07-16T11:22:07;6.15;;;3.75;;
22705;SDS011;11520;51.198;4.468;2023-07-16T11:24:41;14.07;;;3.65;;
22705;SDS011;11520;51.198;4.468;2023-07-16T11:27:12;6.57;;;2.75;;
22705;SDS011;11520;51.198;4.468;2023-07-16T11:32:13;4.88;;;2.65;;
22705;SDS011;11520;51.198;4.468;2023-07-16T11:34:51;3.58;;;2.38;;
22705;SDS011;11520;51.198;4.468;2023-07-16T11:37:18;6.28;;;2.70;;
22705;SDS011;11520;51.198;4.468;2023-07-16T11:39:45;4.03;;;1.80;;
22705;SDS011;11520;51.198;4.468;2023-07-16T11:42:11;5.18;;;2.25;;
22705;SDS011;11520;51.198;4.468;2023-07-16T11:44:37;3.15;;;1.52;;
22705;SDS011;11520;51.198;4.468;2023-07-16T11:47:03;3.97;;;2.15;;
22705;SDS011;11520;51.198;4.468;2023-07-16T11:49:30;5.18;;;2.45;;
22705;SDS011;11520;51.198;4.468;2023-07-16T11:51:56;5.40;;;2.03;;
22705;SDS011;11520;51.198;4.468;2023-07-16T11:54:24;3.97;;;2.25;;
22705;SDS011;11520;51.198;4.468;2023-07-16T11:56:50;4.07;;;1.65;;
22705;SDS011;11520;51.198;4.468;2023-07-16T11:59:16;4.53;;;1.58;;
22705;SDS011;11520;51.198;4.468;2023-07-16T12:01:45;6.90;;;2.00;;
22705;SDS011;11520;51.198;4.468;2023-07-16T12:04:13;5.30;;;1.80;;
22705;SDS011;11520;51.198;4.468;2023-07-16T12:06:39;2.90;;;1.73;;
22705;SDS011;11520;51.198;4.468;2023-07-16T12:09:04;3.55;;;1.50;;
22705;SDS011;11520;51.198;4.468;2023-07-16T12:11:31;4.72;;;1.50;;
22705;SDS011;11520;51.198;4.468;2023-07-16T12:13:56;3.78;;;1.75;;
22705;SDS011;11520;51.198;4.468;2023-07-16T12:16:22;3.38;;;1.90;;
22705;SDS011;11520;51.198;4.468;2023-07-16T12:18:47;2.95;;;1.70;;
22705;SDS011;11520;51.198;4.468;2023-07-16T12:21:13;5.30;;;1.95;;
22705;SDS011;11520;51.198;4.468;2023-07-16T12:23:39;4.75;;;2.35;;
22705;SDS011;11520;51.198;4.468;2023-07-16T12:26:05;3.55;;;1.85;;
22705;SDS011;11520;51.198;4.468;2023-07-16T12:28:31;3.33;;;2.20;;
22705;SDS011;11520;51.198;4.468;2023-07-16T12:30:56;4.18;;;2.17;;
22705;SDS011;11520;51.198;4.468;2023-07-16T12:33:22;8.00;;;2.72;;
22705;SDS011;11520;51.198;4.468;2023-07-16T12:35:50;4.72;;;2.67;;
22705;SDS011;11520;51.198;4.468;2023-07-16T12:38:16;3.30;;;2.58;;
22705;SDS011;11520;51.198;4.468;2023-07-16T12:40:43;3.03;;;2.30;;
22705;SDS011;11520;51.198;4.468;2023-07-16T12:43:08;8.07;;;3.15;;
22705;SDS011;11520;51.198;4.468;2023-07-16T12:45:35;5.75;;;2.53;;
22705;SDS011;11520;51.198;4.468;2023-07-16T12:48:01;5.28;;;2.60;;
22705;SDS011;11520;51.198;4.468;2023-07-16T12:50:27;7.43;;;2.60;;
22705;SDS011;11520;51.198;4.468;2023-07-16T12:52:54;4.63;;;2.60;;
22705;SDS011;11520;51.198;4.468;2023-07-16T12:55:19;7.70;;;3.03;;
22705;SDS011;11520;51.198;4.468;2023-07-16T12:57:45;5.78;;;2.67;;
22705;SDS011;11520;51.198;4.468;2023-07-16T13:00:12;3.28;;;2.33;;
22705;SDS011;11520;51.198;4.468;2023-07-16T13:02:38;5.40;;;2.28;;
22705;SDS011;11520;51.198;4.468;2023-07-16T13:05:04;4.72;;;2.50;;
22705;SDS011;11520;51.198;4.468;2023-07-16T13:07:31;5.75;;;2.47;;
22705;SDS011;11520;51.198;4.468;2023-07-16T13:09:57;6.43;;;2.38;;
22705;SDS011;11520;51.198;4.468;2023-07-16T13:12:22;3.05;;;2.03;;
22705;SDS011;11520;51.198;4.468;2023-07-16T13:14:48;5.60;;;2.65;;
22705;SDS011;11520;51.198;4.468;2023-07-16T13:17:14;7.40;;;2.33;;
22705;SDS011;11520;51.198;4.468;2023-07-16T13:19:41;4.22;;;2.40;;
22705;SDS011;11520;51.198;4.468;2023-07-16T13:22:07;5.63;;;2.40;;
22705;SDS011;11520;51.198;4.468;2023-07-16T13:24:33;5.97;;;2.40;;
22705;SDS011;11520;51.198;4.468;2023-07-16T13:26:58;4.30;;;2.45;;
22705;SDS011;11520;51.198;4.468;2023-07-16T13:29:24;7.97;;;3.03;;
22705;SDS011;11520;51.198;4.468;2023-07-16T13:31:49;7.55;;;2.78;;
22705;SDS011;11520;51.198;4.468;2023-07-16T13:34:15;3.88;;;2.40;;
22705;SDS011;11520;51.198;4.468;2023-07-16T13:36:40;4.20;;;2.30;;
22705;SDS011;11520;51.198;4.468;2023-07-16T13:39:06;4.38;;;2.38;;
22705;SDS011;11520;51.198;4.468;2023-07-16T13:41:32;6.00;;;2.28;;
22705;SDS011;11520;51.198;4.468;2023-07-16T13:43:58;6.35;;;1.83;;
22705;SDS011;11520;51.198;4.468;2023-07-16T13:46:23;4.55;;;2.58;;
22705;SDS011;11520;51.198;4.468;2023-07-16T13:48:49;5.40;;;2.30;;
22705;SDS011;11520;51.198;4.468;2023-07-16T13:51:15;4.35;;;2.35;;
22705;SDS011;11520;51.198;4.468;2023-07-16T13:53:42;3.53;;;1.90;;
22705;SDS011;11520;51.198;4.468;2023-07-16T13:56:09;4.18;;;2.40;;
22705;SDS011;11520;51.198;4.468;2023-07-16T13:58:35;3.25;;;1.83;;
22705;SDS011;11520;51.198;4.468;2023-07-16T14:01:00;4.00;;;2.17;;
22705;SDS011;11520;51.198;4.468;2023-07-16T14:03:26;5.75;;;2.22;;
22705;SDS011;11520;51.198;4.468;2023-07-16T14:05:52;3.55;;;1.38;;
22705;SDS011;11520;51.198;4.468;2023-07-16T14:08:18;3.45;;;1.13;;
22705;SDS011;11520;51.198;4.468;2023-07-16T14:10:45;1.63;;;0.70;;
22705;SDS011;11520;51.198;4.468;2023-07-16T14:13:11;0.60;;;0.60;;
22705;SDS011;11520;51.198;4.468;2023-07-16T14:15:37;3.38;;;0.95;;
22705;SDS011;11520;51.198;4.468;2023-07-16T14:18:03;2.60;;;1.10;;
22705;SDS011;11520;51.198;4.468;2023-07-16T14:20:29;3.25;;;1.13;;
22705;SDS011;11520;51.198;4.468;2023-07-16T14:22:54;1.73;;;0.75;;
22705;SDS011;11520;51.198;4.468;2023-07-16T14:25:20;3.72;;;1.17;;
22705;SDS011;11520;51.198;4.468;2023-07-16T14:27:46;2.30;;;1.00;;
22705;SDS011;11520;51.198;4.468;2023-07-16T14:30:13;3.28;;;1.00;;
22705;SDS011;11520;51.198;4.468;2023-07-16T14:32:39;3.53;;;1.10;;
22705;SDS011;11520;51.198;4.468;2023-07-16T14:35:05;1.48;;;0.60;;
22705;SDS011;11520;51.198;4.468;2023-07-16T14:37:32;1.27;;;0.77;;
22705;SDS011;11520;51.198;4.468;2023-07-16T14:39:58;2.08;;;0.90;;
22705;SDS011;11520;51.198;4.468;2023-07-16T14:42:24;2.03;;;0.80;;
22705;SDS011;11520;51.198;4.468;2023-07-16T14:44:49;1.33;;;0.80;;
22705;SDS011;11520;51.198;4.468;2023-07-16T14:47:16;2.05;;;0.75;;
22705;SDS011;11520;51.198;4.468;2023-07-16T14:49:43;2.45;;;1.08;;